Overview Statistics Trail Chart Weather Telemetry Raw packets
 

This is the latest recevied weather packets stored in our database for station/object KG7FOQ-13. If no packets are shown the sender has not sent any weather packets the latest 10 day(s).

<< 15 16 17 18 19 20 21 >>
Time Temp. Humidity Pressure Rain* Wind** Luminosity Snow
1788503480 10° C 81% 1009.8 hPa 0 mm - - -
1788503179 10.56° C 81% 1009.5 hPa 0 mm - - -
1788502879 10.56° C 82% 1009.1 hPa 0 mm - - -
1788502578 11.11° C 82% 1008.4 hPa 0 mm - - -
1788502278 11.11° C 83% 1008 hPa 0 mm - - -
1788501977 11.11° C 81% 1007.7 hPa 0 mm - - -
1788501677 11.67° C 78% 1007.3 hPa 0 mm - - -
1788501376 13.89° C 72% 1007 hPa 0 mm - - -
1788501075 15.56° C 54% 1006.7 hPa 0 mm - - -
1788500775 16.11° C 56% 1006 hPa 0 mm - - -
1788500474 15° C 62% 1006 hPa 0 mm - - -
1788500174 15.56° C 61% 1005.9 hPa 0 mm - - -
1788499873 15.56° C 58% 1005.9 hPa 0 mm - - -
1788499573 15.56° C 59% 1005.9 hPa 0 mm - - -
1788499272 15° C 62% 1005.9 hPa 0 mm - - -
1788498972 15° C 62% 1005.9 hPa 0 mm - - -
1788498671 15° C 66% 1006 hPa 0 mm - - -
1788498070 14.44° C 67% 1006.2 hPa 0 mm - - -
1788497770 15° C 68% 1006.2 hPa 0 mm - - -
1788497469 14.44° C 72% 1006.3 hPa 0 mm - - -
1788497169 13.89° C 73% 1006.5 hPa 0 mm - - -
1788496868 14.44° C 74% 1006.5 hPa 0 mm - - -
1788496569 15° C 70% 1006.5 hPa 0 mm - - -
1788496267 15.56° C 69% 1006.6 hPa 0 mm - - -
1788495967 16.11° C 67% 1006.7 hPa 0 mm - - -

* Rain latest hour (hover to see other rain measurements)
** Current wind speed in m/s (hover to see current wind gust speed)